Time;durP1;ratioP1;P1;durP2;ratioP2;P2;SDS_P1;SDS_P2;PMS_P1;PMS_P2;Temp;Humidity;BMP_temperature;BMP_pressure;BME280_temperature;BME280_humidity;BME280_pressure;Samples;Min_cycle;Max_cycle;Signal;HPM_P1;HPM_P2
2021/04/02 00:00:37;;;;;;;6.17;2.60;;;;;;;;;;5116975;28;20621;-76
2021/04/02 00:03:06;;;;;;;3.63;2.40;;;;;;;;;;5109894;28;20268;-77
2021/04/02 00:05:33;;;;;;;4.40;2.80;;;;;;;;;;5104718;28;20248;-77
2021/04/02 00:08:00;;;;;;;3.30;2.23;;;;;;;;;;5106494;28;20248;-77
2021/04/02 00:10:32;;;;;;;4.40;2.60;;;;;;;;;;5117882;28;20200;-77
2021/04/02 00:12:59;;;;;;;3.50;2.33;;;;;;;;;;5114365;28;20279;-77
2021/04/02 00:15:26;;;;;;;2.50;2.20;;;;;;;;;;5106935;28;20292;-77
2021/04/02 00:17:54;;;;;;;5.97;2.53;;;;;;;;;;5103849;28;20277;-77
2021/04/02 00:20:21;;;;;;;6.33;2.27;;;;;;;;;;5118046;28;20205;-77
2021/04/02 00:22:48;;;;;;;2.60;2.17;;;;;;;;;;5117860;28;20315;-77
2021/04/02 00:25:15;;;;;;;4.70;2.70;;;;;;;;;;5118896;28;20236;-77
2021/04/02 00:27:42;;;;;;;3.37;2.40;;;;;;;;;;5121469;27;20316;-77
2021/04/02 00:30:14;;;;;;;2.90;2.50;;;;;;;;;;5120875;28;20268;-77
2021/04/02 00:32:41;;;;;;;5.17;2.47;;;;;;;;;;5113465;28;20288;-77
2021/04/02 00:35:11;;;;;;;3.50;2.17;;;;;;;;;;5117638;28;20304;-77
2021/04/02 00:37:38;;;;;;;4.87;2.67;;;;;;;;;;5120366;28;20305;-77
2021/04/02 00:40:07;;;;;;;7.70;2.43;;;;;;;;;;5121381;28;20710;-77
2021/04/02 00:42:34;;;;;;;4.13;2.57;;;;;;;;;;5120311;28;20220;-77
2021/04/02 00:45:01;;;;;;;6.27;2.70;;;;;;;;;;5102246;27;20221;-77
2021/04/02 00:47:28;;;;;;;6.73;3.17;;;;;;;;;;5120549;28;20204;-77
2021/04/02 00:49:55;;;;;;;6.20;2.73;;;;;;;;;;5120124;28;20227;-77
2021/04/02 00:52:23;;;;;;;3.57;2.80;;;;;;;;;;5120337;28;20213;-77
2021/04/02 00:54:50;;;;;;;4.67;2.70;;;;;;;;;;5116500;28;20276;-77
2021/04/02 00:57:17;;;;;;;5.27;2.60;;;;;;;;;;5121186;28;20236;-77
2021/04/02 00:59:44;;;;;;;4.47;3.00;;;;;;;;;;5119939;28;20276;-77
2021/04/02 01:02:11;;;;;;;5.07;2.57;;;;;;;;;;5120977;28;20292;-77
2021/04/02 01:04:38;;;;;;;5.83;2.60;;;;;;;;;;5116799;28;20284;-77
2021/04/02 01:07:05;;;;;;;4.43;2.50;;;;;;;;;;5099383;28;20265;-77
2021/04/02 01:09:33;;;;;;;3.63;2.73;;;;;;;;;;5111793;28;20308;-78
2021/04/02 01:12:00;;;;;;;3.83;2.83;;;;;;;;;;5119385;28;20200;-77
2021/04/02 01:14:27;;;;;;;2.77;2.57;;;;;;;;;;5119800;28;20220;-77
2021/04/02 01:16:54;;;;;;;4.87;2.60;;;;;;;;;;5121049;28;20205;-77
2021/04/02 01:19:25;;;;;;;5.97;2.37;;;;;;;;;;5115527;28;20197;-77
2021/04/02 01:21:53;;;;;;;3.50;2.53;;;;;;;;;;5120568;28;20284;-77
2021/04/02 01:24:35;;;;;;;3.97;2.40;;;;;;;;;;5104827;28;20668;-77
2021/04/02 01:27:08;;;;;;;2.90;2.60;;;;;;;;;;5114114;28;20228;-77
2021/04/02 01:29:39;;;;;;;3.03;2.43;;;;;;;;;;5120561;28;20232;-77
2021/04/02 01:32:09;;;;;;;5.93;2.60;;;;;;;;;;5116669;28;20264;-77
2021/04/02 01:34:38;;;;;;;4.57;2.50;;;;;;;;;;5107652;28;20303;-77
2021/04/02 01:37:07;;;;;;;2.87;2.50;;;;;;;;;;5105861;27;20268;-77
2021/04/02 01:39:35;;;;;;;3.63;2.60;;;;;;;;;;5099534;28;20267;-77
2021/04/02 01:42:03;;;;;;;3.40;2.37;;;;;;;;;;5102884;28;20238;-77
2021/04/02 01:44:32;;;;;;;3.70;2.30;;;;;;;;;;5116339;28;20224;-77
2021/04/02 01:47:01;;;;;;;4.97;2.37;;;;;;;;;;5120311;28;20284;-77
2021/04/02 01:49:29;;;;;;;5.97;2.87;;;;;;;;;;5116569;28;20252;-77
2021/04/02 01:51:56;;;;;;;6.00;2.23;;;;;;;;;;5120198;28;20715;-77
2021/04/02 01:54:23;;;;;;;4.87;2.47;;;;;;;;;;5117668;28;20235;-77
2021/04/02 01:56:53;;;;;;;4.33;2.70;;;;;;;;;;5119819;28;20291;-77
2021/04/02 01:59:21;;;;;;;5.10;3.23;;;;;;;;;;5119019;28;20250;-76
2021/04/02 02:01:49;;;;;;;4.07;2.03;;;;;;;;;;5119771;28;20292;-77
2021/04/02 02:04:17;;;;;;;5.33;2.53;;;;;;;;;;5104988;28;20308;-77
2021/04/02 02:06:45;;;;;;;3.90;2.80;;;;;;;;;;5103383;28;20305;-77
2021/04/02 02:09:14;;;;;;;4.43;2.40;;;;;;;;;;5116868;28;20261;-76
2021/04/02 02:11:41;;;;;;;5.73;2.70;;;;;;;;;;5118909;28;20239;-77
2021/04/02 02:14:09;;;;;;;4.50;2.20;;;;;;;;;;5117039;28;20200;-76
2021/04/02 02:16:39;;;;;;;5.13;2.03;;;;;;;;;;5119768;28;20713;-77
2021/04/02 02:19:08;;;;;;;3.40;2.10;;;;;;;;;;5117951;28;20285;-77
2021/04/02 02:21:39;;;;;;;3.70;3.40;;;;;;;;;;5107708;28;20288;-77
2021/04/02 02:24:07;;;;;;;2.03;1.93;;;;;;;;;;5106270;28;20285;-76
2021/04/02 02:26:34;;;;;;;3.50;2.13;;;;;;;;;;5118968;28;20239;-77
2021/04/02 02:29:01;;;;;;;2.53;1.90;;;;;;;;;;5118343;28;20225;-76
2021/04/02 02:31:28;;;;;;;4.93;2.27;;;;;;;;;;5118456;28;20281;-76
2021/04/02 02:33:55;;;;;;;3.73;2.30;;;;;;;;;;5114109;28;20647;-77
2021/04/02 02:36:22;;;;;;;2.57;2.27;;;;;;;;;;5118256;28;20287;-77
2021/04/02 02:38:50;;;;;;;2.77;2.27;;;;;;;;;;5118106;28;20197;-77
2021/04/02 02:41:17;;;;;;;3.80;2.47;;;;;;;;;;5118798;28;20240;-76
2021/04/02 02:43:46;;;;;;;5.07;2.53;;;;;;;;;;5117592;28;20230;-77
2021/04/02 02:46:13;;;;;;;4.57;2.40;;;;;;;;;;5118059;28;20319;-77
2021/04/02 02:48:42;;;;;;;5.77;2.60;;;;;;;;;;5116113;28;20303;-77
2021/04/02 02:51:15;;;;;;;6.00;2.60;;;;;;;;;;5119055;28;20204;-76
2021/04/02 02:53:43;;;;;;;3.17;2.43;;;;;;;;;;5109461;28;20284;-77
2021/04/02 02:56:11;;;;;;;4.90;2.43;;;;;;;;;;5114222;28;20775;-76
2021/04/02 02:58:40;;;;;;;5.33;2.37;;;;;;;;;;5117810;28;20236;-76
2021/04/02 03:01:08;;;;;;;4.93;2.23;;;;;;;;;;5118990;28;20287;-76
2021/04/02 03:03:35;;;;;;;5.37;2.43;;;;;;;;;;5109897;28;20305;-77
2021/04/02 03:06:03;;;;;;;3.37;2.30;;;;;;;;;;5116101;28;20655;-77
2021/04/02 03:08:32;;;;;;;6.43;2.80;;;;;;;;;;5117287;28;20655;-77
2021/04/02 03:11:00;;;;;;;3.13;2.07;;;;;;;;;;5118706;28;20236;-77
2021/04/02 03:13:28;;;;;;;3.67;2.03;;;;;;;;;;5117243;28;20197;-77
2021/04/02 03:15:56;;;;;;;2.73;2.30;;;;;;;;;;5104999;28;20259;-76
2021/04/02 03:18:25;;;;;;;4.13;2.27;;;;;;;;;;5117261;28;20231;-77
2021/04/02 03:20:53;;;;;;;3.57;2.00;;;;;;;;;;5118367;28;20216;-77
2021/04/02 03:23:20;;;;;;;3.27;2.00;;;;;;;;;;5116626;28;20296;-75
2021/04/02 03:25:48;;;;;;;4.60;2.03;;;;;;;;;;5118176;28;20228;-77
2021/04/02 03:28:16;;;;;;;7.60;2.43;;;;;;;;;;5101335;28;20202;-77
2021/04/02 03:30:44;;;;;;;4.03;2.23;;;;;;;;;;5108338;28;20631;-76
2021/04/02 03:33:13;;;;;;;3.93;2.27;;;;;;;;;;5106231;28;20288;-76
2021/04/02 03:35:40;;;;;;;5.70;2.50;;;;;;;;;;5110368;28;20247;-77
2021/04/02 03:38:09;;;;;;;6.13;2.20;;;;;;;;;;5117194;28;20231;-76
2021/04/02 03:40:36;;;;;;;3.67;2.37;;;;;;;;;;5118050;28;20263;-77
2021/04/02 03:43:05;;;;;;;3.30;2.10;;;;;;;;;;5116143;28;20228;-77
2021/04/02 03:45:32;;;;;;;5.33;2.80;;;;;;;;;;5118210;28;20307;-77
2021/04/02 03:48:02;;;;;;;2.83;2.60;;;;;;;;;;5116228;28;20269;-77
2021/04/02 03:50:31;;;;;;;5.37;2.47;;;;;;;;;;5101023;28;20249;-77
2021/04/02 03:53:04;;;;;;;5.83;3.10;;;;;;;;;;5112074;28;20216;-77
2021/04/02 03:55:31;;;;;;;2.70;2.00;;;;;;;;;;5118255;28;20312;-76
2021/04/02 03:58:01;;;;;;;6.43;2.57;;;;;;;;;;5121247;28;20643;-76
2021/04/02 04:00:29;;;;;;;4.67;2.43;;;;;;;;;;5122128;28;20230;-76
2021/04/02 04:02:56;;;;;;;3.53;2.70;;;;;;;;;;5120079;28;20284;-76
2021/04/02 04:05:25;;;;;;;6.00;2.40;;;;;;;;;;5118494;28;20730;-76
2021/04/02 04:07:53;;;;;;;4.03;2.50;;;;;;;;;;5107916;28;20243;-76
2021/04/02 04:10:20;;;;;;;3.47;2.73;;;;;;;;;;5110092;28;20228;-76
2021/04/02 04:12:49;;;;;;;12.00;4.20;;;;;;;;;;5120962;28;20735;-76
2021/04/02 04:15:17;;;;;;;12.13;3.70;;;;;;;;;;5108500;28;20286;-76
2021/04/02 04:17:46;;;;;;;5.80;2.83;;;;;;;;;;5121303;28;20209;-76
2021/04/02 04:20:16;;;;;;;3.13;2.70;;;;;;;;;;5120707;28;20684;-76
2021/04/02 04:22:45;;;;;;;6.97;3.60;;;;;;;;;;5121324;28;20771;-77
2021/04/02 04:25:13;;;;;;;6.70;3.23;;;;;;;;;;5118164;28;20224;-76
2021/04/02 04:27:42;;;;;;;8.87;3.27;;;;;;;;;;5111230;28;20240;-76
2021/04/02 04:30:10;;;;;;;5.03;2.97;;;;;;;;;;5107255;28;20224;-76
2021/04/02 04:32:39;;;;;;;3.47;2.97;;;;;;;;;;5115021;28;20228;-78
2021/04/02 04:35:07;;;;;;;4.70;2.80;;;;;;;;;;5105994;28;20225;-77
2021/04/02 04:37:35;;;;;;;4.53;2.40;;;;;;;;;;5113661;28;20209;-78
2021/04/02 04:40:04;;;;;;;5.83;2.90;;;;;;;;;;5116159;28;20280;-78
2021/04/02 04:42:32;;;;;;;4.73;2.20;;;;;;;;;;5121723;27;20201;-78
2021/04/02 04:44:59;;;;;;;4.80;3.10;;;;;;;;;;5119198;27;20231;-78
2021/04/02 04:47:26;;;;;;;8.03;2.93;;;;;;;;;;5121589;27;20201;-78
2021/04/02 04:49:53;;;;;;;4.93;2.50;;;;;;;;;;5118226;27;20216;-78
2021/04/02 04:52:21;;;;;;;9.77;3.20;;;;;;;;;;5119812;27;20229;-78
2021/04/02 04:54:50;;;;;;;6.53;2.60;;;;;;;;;;5119531;27;20311;-77
2021/04/02 04:57:19;;;;;;;6.23;3.03;;;;;;;;;;5117458;28;20707;-78
2021/04/02 04:59:47;;;;;;;15.27;6.97;;;;;;;;;;5121635;27;20236;-77
2021/04/02 05:02:15;;;;;;;6.80;3.47;;;;;;;;;;5117508;27;20236;-78
2021/04/02 05:04:43;;;;;;;9.00;2.70;;;;;;;;;;5115626;28;20309;-78
2021/04/02 05:07:11;;;;;;;4.60;2.83;;;;;;;;;;5115377;28;20213;-78
2021/04/02 05:09:38;;;;;;;6.80;2.90;;;;;;;;;;5117057;28;20276;-78
2021/04/02 05:12:06;;;;;;;5.00;3.37;;;;;;;;;;5120706;27;20283;-77
2021/04/02 05:14:35;;;;;;;4.63;2.60;;;;;;;;;;5112849;28;20249;-78
2021/04/02 05:17:02;;;;;;;10.13;3.37;;;;;;;;;;5122681;27;20216;-78
2021/04/02 05:19:29;;;;;;;7.10;3.57;;;;;;;;;;5119521;28;20276;-77
2021/04/02 05:21:56;;;;;;;5.97;3.33;;;;;;;;;;5120954;27;20284;-77
2021/04/02 05:24:23;;;;;;;9.03;3.83;;;;;;;;;;5118817;27;20223;-81
2021/04/02 05:26:51;;;;;;;4.43;2.77;;;;;;;;;;5124272;27;20725;-81
2021/04/02 05:29:18;;;;;;;12.57;3.23;;;;;;;;;;5127786;27;20225;-80
2021/04/02 05:31:46;;;;;;;5.07;3.13;;;;;;;;;;5119179;28;20240;-79
2021/04/02 05:34:14;;;;;;;8.23;3.87;;;;;;;;;;5101243;28;20609;-80
2021/04/02 05:36:41;;;;;;;3.93;2.80;;;;;;;;;;5106371;27;20251;-79
2021/04/02 05:39:08;;;;;;;5.73;2.97;;;;;;;;;;5119382;28;20296;-79
2021/04/02 05:41:44;;;;;;;4.93;3.00;;;;;;;;;;5120374;28;20236;-80
2021/04/02 05:44:12;;;;;;;6.77;3.57;;;;;;;;;;5116486;28;20242;-78
2021/04/02 05:46:40;;;;;;;4.03;3.00;;;;;;;;;;5114019;28;20288;-79
2021/04/02 05:49:08;;;;;;;8.27;3.23;;;;;;;;;;5118281;27;20328;-79
2021/04/02 05:51:35;;;;;;;6.57;3.07;;;;;;;;;;5104006;28;20232;-80
2021/04/02 05:54:03;;;;;;;6.40;2.87;;;;;;;;;;5104537;28;20224;-80
2021/04/02 05:56:30;;;;;;;6.13;2.77;;;;;;;;;;5106043;28;20251;-82
2021/04/02 05:58:57;;;;;;;4.77;2.90;;;;;;;;;;5114400;28;20213;-73
2021/04/02 06:01:24;;;;;;;7.97;3.20;;;;;;;;;;5109871;28;20252;-73
2021/04/02 06:03:51;;;;;;;6.20;2.90;;;;;;;;;;5138507;27;20287;-75
2021/04/02 06:06:20;;;;;;;6.37;2.60;;;;;;;;;;5122977;27;20221;-75
2021/04/02 06:08:47;;;;;;;5.77;3.30;;;;;;;;;;5105896;28;20268;-75
2021/04/02 06:11:15;;;;;;;6.87;3.07;;;;;;;;;;5114890;28;20214;-75
2021/04/02 06:13:42;;;;;;;5.57;3.00;;;;;;;;;;5113101;27;20208;-75
2021/04/02 06:16:09;;;;;;;4.03;3.00;;;;;;;;;;5139537;27;20272;-76
2021/04/02 06:18:38;;;;;;;5.83;3.00;;;;;;;;;;5121649;27;20238;-75
2021/04/02 06:21:05;;;;;;;5.97;2.70;;;;;;;;;;5118894;28;20258;-76
2021/04/02 06:23:35;;;;;;;6.27;3.30;;;;;;;;;;5117751;28;20688;-75
2021/04/02 06:26:03;;;;;;;6.63;4.20;;;;;;;;;;5113676;28;20221;-76
2021/04/02 06:28:32;;;;;;;7.83;3.27;;;;;;;;;;5118750;28;20215;-75
2021/04/02 06:31:01;;;;;;;6.67;2.87;;;;;;;;;;5118564;28;20229;-74
2021/04/02 06:33:35;;;;;;;10.77;3.70;;;;;;;;;;5114161;28;20662;-74
2021/04/02 06:36:03;;;;;;;15.20;5.87;;;;;;;;;;5118733;28;20260;-74
2021/04/02 06:38:31;;;;;;;10.17;3.80;;;;;;;;;;5118306;28;20205;-74
2021/04/02 06:41:01;;;;;;;12.67;3.83;;;;;;;;;;5118142;27;20209;-76
2021/04/02 06:43:33;;;;;;;12.67;3.77;;;;;;;;;;5118638;28;20243;-73
2021/04/02 06:46:04;;;;;;;10.90;3.93;;;;;;;;;;5115866;28;20240;-75
2021/04/02 06:48:31;;;;;;;11.27;3.80;;;;;;;;;;5118013;28;20209;-74
2021/04/02 06:50:59;;;;;;;6.33;3.20;;;;;;;;;;5118276;28;20227;-74
2021/04/02 06:53:26;;;;;;;6.33;3.60;;;;;;;;;;5114746;28;20201;-75
2021/04/02 06:55:54;;;;;;;9.33;3.70;;;;;;;;;;5115927;28;20217;-75
2021/04/02 06:58:23;;;;;;;7.37;3.83;;;;;;;;;;5110633;28;20206;-76
2021/04/02 07:00:51;;;;;;;10.17;4.00;;;;;;;;;;5116882;28;20235;-76
2021/04/02 07:03:19;;;;;;;9.43;4.00;;;;;;;;;;5118495;28;20244;-73
2021/04/02 07:05:48;;;;;;;12.57;4.13;;;;;;;;;;5118136;28;20231;-73
2021/04/02 07:08:17;;;;;;;7.97;3.67;;;;;;;;;;5117924;28;20209;-75
2021/04/02 07:10:46;;;;;;;9.43;4.20;;;;;;;;;;5118026;28;20235;-73
2021/04/02 07:13:14;;;;;;;10.07;4.07;;;;;;;;;;5117863;28;20291;-74
2021/04/02 07:15:43;;;;;;;7.33;4.20;;;;;;;;;;5115234;28;20225;-74
2021/04/02 07:18:13;;;;;;;12.00;4.57;;;;;;;;;;5117859;28;20208;-73
2021/04/02 07:20:40;;;;;;;6.07;3.47;;;;;;;;;;5117896;28;20288;-74
2021/04/02 07:23:08;;;;;;;9.37;4.20;;;;;;;;;;5117469;28;20407;-74
2021/04/02 07:25:36;;;;;;;18.00;4.63;;;;;;;;;;5117749;28;20216;-74
2021/04/02 07:28:05;;;;;;;9.67;4.60;;;;;;;;;;5117642;28;20238;-74
2021/04/02 07:30:33;;;;;;;11.20;4.87;;;;;;;;;;5117564;28;20320;-75
2021/04/02 07:33:03;;;;;;;10.43;4.47;;;;;;;;;;5115045;28;20671;-75
2021/04/02 07:35:31;;;;;;;15.43;4.40;;;;;;;;;;5117448;28;20278;-75
2021/04/02 07:38:00;;;;;;;9.93;5.30;;;;;;;;;;5117300;28;20667;-74
2021/04/02 07:40:28;;;;;;;8.93;5.03;;;;;;;;;;5117513;28;20203;-75
2021/04/02 07:42:57;;;;;;;10.63;5.00;;;;;;;;;;5117577;28;20215;-75
2021/04/02 07:45:26;;;;;;;16.47;5.47;;;;;;;;;;5117672;28;20278;-75
2021/04/02 07:47:54;;;;;;;14.80;5.63;;;;;;;;;;5117663;28;20291;-75
2021/04/02 07:50:38;;;;;;;10.57;5.10;;;;;;;;;;5107367;28;20224;-76
2021/04/02 07:53:05;;;;;;;9.83;5.40;;;;;;;;;;5116792;28;20751;-74
2021/04/02 07:55:32;;;;;;;14.73;5.67;;;;;;;;;;5105424;28;20631;-77
2021/04/02 07:58:00;;;;;;;17.43;6.60;;;;;;;;;;5117570;28;20205;-77
2021/04/02 08:00:29;;;;;;;10.23;5.40;;;;;;;;;;5117630;28;20216;-76
2021/04/02 08:03:12;;;;;;;11.23;5.27;;;;;;;;;;5117512;27;20295;-75
2021/04/02 08:05:45;;;;;;;11.33;5.60;;;;;;;;;;5116106;28;20224;-75
2021/04/02 08:08:16;;;;;;;13.33;5.40;;;;;;;;;;5115798;28;20233;-75
2021/04/02 08:10:58;;;;;;;8.00;5.67;;;;;;;;;;5117333;28;20695;-75
2021/04/02 08:13:26;;;;;;;13.27;5.87;;;;;;;;;;5104829;28;20648;-75
2021/04/02 08:15:56;;;;;;;12.83;5.87;;;;;;;;;;5117208;28;20225;-75
2021/04/02 08:18:25;;;;;;;11.07;5.97;;;;;;;;;;5117333;28;20201;-75
2021/04/02 08:20:57;;;;;;;11.80;5.10;;;;;;;;;;5117442;28;20197;-75
2021/04/02 08:23:26;;;;;;;15.80;5.77;;;;;;;;;;5109237;28;20264;-76
2021/04/02 08:25:55;;;;;;;13.10;6.07;;;;;;;;;;5116856;28;20251;-75
2021/04/02 08:28:24;;;;;;;9.50;5.03;;;;;;;;;;5117116;28;20239;-75
2021/04/02 08:30:53;;;;;;;9.10;5.47;;;;;;;;;;5117259;28;20229;-75
2021/04/02 08:33:20;;;;;;;9.20;5.70;;;;;;;;;;5105265;28;20676;-76
2021/04/02 08:35:47;;;;;;;11.20;5.23;;;;;;;;;;5117372;28;20225;-75
2021/04/02 08:38:16;;;;;;;13.23;5.57;;;;;;;;;;5116795;28;20620;-75
2021/04/02 08:40:43;;;;;;;15.30;6.57;;;;;;;;;;5115317;27;20610;-75
2021/04/02 08:43:12;;;;;;;10.50;5.30;;;;;;;;;;5118189;28;20211;-75
2021/04/02 08:45:59;;;;;;;9.77;5.20;;;;;;;;;;5120746;28;20225;-76
2021/04/02 08:48:26;;;;;;;8.70;5.00;;;;;;;;;;5121092;28;20205;-76
2021/04/02 08:50:54;;;;;;;14.00;5.40;;;;;;;;;;5120701;28;20233;-75
2021/04/02 08:53:22;;;;;;;12.20;5.13;;;;;;;;;;5120215;28;20208;-79
2021/04/02 08:55:49;;;;;;;11.53;5.03;;;;;;;;;;5120737;28;20254;-78
2021/04/02 08:58:16;;;;;;;13.47;5.80;;;;;;;;;;5110938;28;20247;-78
2021/04/02 09:00:43;;;;;;;13.00;5.20;;;;;;;;;;5120451;28;20283;-77
2021/04/02 09:03:10;;;;;;;12.37;5.10;;;;;;;;;;5120470;27;20285;-78
2021/04/02 09:05:40;;;;;;;12.90;5.87;;;;;;;;;;5106748;27;20226;-75
2021/04/02 09:08:07;;;;;;;12.30;6.00;;;;;;;;;;5113250;27;20216;-76
2021/04/02 09:10:37;;;;;;;11.77;5.27;;;;;;;;;;5133169;27;20281;-76
2021/04/02 09:13:07;;;;;;;10.47;5.83;;;;;;;;;;5120508;28;20209;-76
2021/04/02 09:15:34;;;;;;;14.33;5.63;;;;;;;;;;5111635;28;20232;-75
2021/04/02 09:18:14;;;;;;;14.10;5.50;;;;;;;;;;5120331;28;20201;-75
2021/04/02 09:20:41;;;;;;;16.53;5.97;;;;;;;;;;5120349;28;20651;-75
2021/04/02 09:23:08;;;;;;;10.33;6.07;;;;;;;;;;5119830;28;20293;-76
2021/04/02 09:25:38;;;;;;;14.07;5.57;;;;;;;;;;5120015;28;20232;-75
2021/04/02 09:28:07;;;;;;;11.17;5.07;;;;;;;;;;5119830;28;20209;-75
2021/04/02 09:30:35;;;;;;;15.40;6.37;;;;;;;;;;5119169;28;20307;-77
2021/04/02 09:33:02;;;;;;;19.03;7.37;;;;;;;;;;5114453;28;20284;-76
2021/04/02 09:35:29;;;;;;;12.60;6.17;;;;;;;;;;5119907;28;20217;-76
2021/04/02 09:37:56;;;;;;;12.13;6.00;;;;;;;;;;5119479;28;20208;-76
2021/04/02 09:40:27;;;;;;;10.03;5.57;;;;;;;;;;5116965;28;20246;-76
2021/04/02 09:42:55;;;;;;;9.67;6.03;;;;;;;;;;5116351;28;20200;-75
2021/04/02 09:45:26;;;;;;;12.53;5.83;;;;;;;;;;5119837;28;20220;-76
2021/04/02 09:47:54;;;;;;;15.40;6.43;;;;;;;;;;5115007;28;20205;-76
2021/04/02 09:50:22;;;;;;;12.33;5.63;;;;;;;;;;5115392;28;20557;-76
2021/04/02 09:52:49;;;;;;;11.93;5.97;;;;;;;;;;5119112;28;20218;-77
2021/04/02 09:55:16;;;;;;;12.37;5.30;;;;;;;;;;5115173;28;20220;-78
2021/04/02 09:57:48;;;;;;;12.33;5.47;;;;;;;;;;5108092;28;20599;-78
2021/04/02 10:00:16;;;;;;;7.83;5.73;;;;;;;;;;5105607;28;20233;-78
2021/04/02 10:02:44;;;;;;;9.70;6.73;;;;;;;;;;5118319;28;20204;-78
2021/04/02 10:05:11;;;;;;;14.63;5.73;;;;;;;;;;5118917;28;20252;-78
2021/04/02 10:07:38;;;;;;;13.10;5.27;;;;;;;;;;5118447;28;20288;-78
2021/04/02 10:10:06;;;;;;;13.77;5.13;;;;;;;;;;5118998;28;20344;-73
2021/04/02 10:12:33;;;;;;;16.53;4.87;;;;;;;;;;5118676;28;20227;-75
2021/04/02 10:15:03;;;;;;;9.33;6.13;;;;;;;;;;5119176;28;20235;-78
2021/04/02 10:17:31;;;;;;;12.10;5.30;;;;;;;;;;5117900;28;20279;-77
2021/04/02 10:19:58;;;;;;;7.80;4.60;;;;;;;;;;5118190;28;20336;-77
2021/04/02 10:22:25;;;;;;;7.27;5.23;;;;;;;;;;5106339;28;20324;-77
2021/04/02 10:24:52;;;;;;;11.60;5.00;;;;;;;;;;5118846;28;20229;-78
2021/04/02 10:27:19;;;;;;;10.33;4.80;;;;;;;;;;5118569;28;20237;-78
2021/04/02 10:29:46;;;;;;;7.03;4.67;;;;;;;;;;5118548;28;20231;-75
2021/04/02 10:32:13;;;;;;;14.13;5.37;;;;;;;;;;5110574;28;20566;-76
2021/04/02 10:34:41;;;;;;;8.07;4.83;;;;;;;;;;5112631;28;20652;-76
2021/04/02 10:37:08;;;;;;;8.60;5.07;;;;;;;;;;5118587;27;20208;-76
2021/04/02 10:39:35;;;;;;;8.67;4.60;;;;;;;;;;5118722;28;20243;-76
2021/04/02 10:42:02;;;;;;;9.17;4.67;;;;;;;;;;5118724;28;20291;-76
2021/04/02 10:44:29;;;;;;;12.03;4.70;;;;;;;;;;5114945;27;20304;-76
2021/04/02 10:46:56;;;;;;;12.03;4.63;;;;;;;;;;5124215;27;20272;-73
2021/04/02 10:49:23;;;;;;;8.93;4.20;;;;;;;;;;5118401;28;20287;-77
2021/04/02 10:51:51;;;;;;;10.43;4.97;;;;;;;;;;5118180;28;20257;-77
2021/04/02 10:54:18;;;;;;;5.80;4.60;;;;;;;;;;5118197;28;20221;-77
2021/04/02 10:56:45;;;;;;;9.40;5.30;;;;;;;;;;5118201;28;20236;-78
2021/04/02 10:59:13;;;;;;;10.67;4.70;;;;;;;;;;5118324;27;20238;-74
2021/04/02 11:01:40;;;;;;;15.37;6.57;;;;;;;;;;5110470;28;20198;-76
2021/04/02 11:04:07;;;;;;;14.63;6.10;;;;;;;;;;5117760;28;20563;-75
2021/04/02 11:06:35;;;;;;;13.27;5.17;;;;;;;;;;5117539;28;20208;-77
2021/04/02 11:09:03;;;;;;;9.40;4.43;;;;;;;;;;5111732;27;20613;-76
2021/04/02 11:11:30;;;;;;;8.23;4.10;;;;;;;;;;5138340;27;20230;-77
2021/04/02 11:13:57;;;;;;;14.27;4.87;;;;;;;;;;5138884;27;20204;-76
2021/04/02 11:16:25;;;;;;;8.90;4.67;;;;;;;;;;5138384;27;20219;-77
2021/04/02 11:18:52;;;;;;;8.80;4.53;;;;;;;;;;5107309;27;20679;-76
2021/04/02 11:21:19;;;;;;;14.33;4.60;;;;;;;;;;5127086;27;20204;-76
2021/04/02 11:23:46;;;;;;;7.13;4.17;;;;;;;;;;5129958;27;20240;-75
2021/04/02 11:26:15;;;;;;;11.00;4.60;;;;;;;;;;5117861;28;20274;-76
2021/04/02 11:28:43;;;;;;;11.00;4.37;;;;;;;;;;5117779;28;20571;-76
2021/04/02 11:31:10;;;;;;;6.60;5.00;;;;;;;;;;5117547;27;20236;-76
2021/04/02 11:33:37;;;;;;;8.07;4.90;;;;;;;;;;5111454;28;20321;-76
2021/04/02 11:36:05;;;;;;;7.67;4.13;;;;;;;;;;5114221;28;20648;-76
2021/04/02 11:38:34;;;;;;;7.53;4.13;;;;;;;;;;5117569;28;20220;-76
2021/04/02 11:41:01;;;;;;;7.63;3.97;;;;;;;;;;5117625;28;20197;-76
2021/04/02 11:43:29;;;;;;;8.63;4.77;;;;;;;;;;5117496;28;20616;-77
2021/04/02 11:45:58;;;;;;;5.50;4.07;;;;;;;;;;5115660;28;20220;-76
2021/04/02 11:48:25;;;;;;;10.00;4.03;;;;;;;;;;5117712;28;20333;-76
2021/04/02 11:50:53;;;;;;;5.83;3.50;;;;;;;;;;5114742;28;20236;-77
2021/04/02 11:53:20;;;;;;;8.50;4.57;;;;;;;;;;5115328;28;20196;-77
2021/04/02 11:55:47;;;;;;;9.17;4.23;;;;;;;;;;5114682;28;20217;-76
2021/04/02 11:58:15;;;;;;;5.77;3.67;;;;;;;;;;5103643;28;20282;-76
2021/04/02 12:00:43;;;;;;;7.17;4.33;;;;;;;;;;5105542;28;20217;-76
2021/04/02 12:03:10;;;;;;;7.10;4.50;;;;;;;;;;5104205;28;20687;-80
2021/04/02 12:05:37;;;;;;;6.10;4.00;;;;;;;;;;5107429;28;20248;-76
2021/04/02 12:08:05;;;;;;;7.93;4.40;;;;;;;;;;5104385;28;20281;-77
2021/04/02 12:10:32;;;;;;;6.10;3.97;;;;;;;;;;5105816;28;20217;-77
2021/04/02 12:12:59;;;;;;;6.63;3.40;;;;;;;;;;5103708;28;20229;-77
2021/04/02 12:15:26;;;;;;;6.90;3.73;;;;;;;;;;5105056;28;20229;-77
2021/04/02 12:17:54;;;;;;;8.30;3.90;;;;;;;;;;5114976;28;20201;-77
2021/04/02 12:20:22;;;;;;;6.37;3.97;;;;;;;;;;5121419;28;20200;-77
2021/04/02 12:22:50;;;;;;;7.50;4.10;;;;;;;;;;5120965;28;20240;-77
2021/04/02 12:25:17;;;;;;;8.00;4.30;;;;;;;;;;5118511;27;20221;-77
2021/04/02 12:27:45;;;;;;;8.13;4.00;;;;;;;;;;5119497;28;20205;-77
2021/04/02 12:30:13;;;;;;;9.03;4.83;;;;;;;;;;5120415;28;20869;-78
2021/04/02 12:32:41;;;;;;;5.80;3.90;;;;;;;;;;5120999;28;20236;-78
2021/04/02 12:35:10;;;;;;;9.27;4.67;;;;;;;;;;5120868;28;20225;-77
2021/04/02 12:37:37;;;;;;;7.03;3.97;;;;;;;;;;5101738;28;20198;-78
2021/04/02 12:40:08;;;;;;;6.27;4.20;;;;;;;;;;5111895;28;20279;-78
2021/04/02 12:42:35;;;;;;;6.50;4.00;;;;;;;;;;5101405;28;20248;-78
2021/04/02 12:45:02;;;;;;;10.70;4.80;;;;;;;;;;5120244;27;20225;-78
2021/04/02 12:47:29;;;;;;;10.70;4.50;;;;;;;;;;5121064;28;20268;-78
2021/04/02 12:49:57;;;;;;;11.23;5.93;;;;;;;;;;5120814;28;20209;-78
2021/04/02 12:52:25;;;;;;;10.23;4.60;;;;;;;;;;5120795;28;20285;-77
2021/04/02 12:54:53;;;;;;;8.97;4.20;;;;;;;;;;5120681;28;20229;-78
2021/04/02 12:57:20;;;;;;;6.00;3.90;;;;;;;;;;5114056;28;20204;-77
2021/04/02 12:59:47;;;;;;;7.57;3.67;;;;;;;;;;5113962;28;20201;-77
2021/04/02 13:02:14;;;;;;;6.70;4.27;;;;;;;;;;5120659;28;20552;-77
2021/04/02 13:04:41;;;;;;;8.73;4.10;;;;;;;;;;5120642;28;20256;-77
2021/04/02 13:07:08;;;;;;;8.23;4.27;;;;;;;;;;5120243;28;20209;-78
2021/04/02 13:09:36;;;;;;;8.00;4.20;;;;;;;;;;5120730;28;20213;-79
2021/04/02 13:12:04;;;;;;;9.93;3.90;;;;;;;;;;5121636;28;20227;-76
2021/04/02 13:14:31;;;;;;;8.33;3.87;;;;;;;;;;5120636;28;20228;-76
2021/04/02 13:16:59;;;;;;;8.90;4.10;;;;;;;;;;5108861;28;20218;-75
2021/04/02 13:19:26;;;;;;;9.63;4.70;;;;;;;;;;5137853;27;20207;-75
2021/04/02 13:21:53;;;;;;;7.00;4.13;;;;;;;;;;5136120;27;20200;-76
2021/04/02 13:24:20;;;;;;;6.10;4.27;;;;;;;;;;5109389;28;20225;-75
2021/04/02 13:26:48;;;;;;;11.60;4.93;;;;;;;;;;5120023;28;20262;-75
2021/04/02 13:29:15;;;;;;;10.67;4.37;;;;;;;;;;5120078;28;20272;-75
2021/04/02 13:31:42;;;;;;;11.30;4.80;;;;;;;;;;5120140;28;20249;-75
2021/04/02 13:34:10;;;;;;;11.70;4.97;;;;;;;;;;5113020;28;20541;-75
2021/04/02 13:36:37;;;;;;;9.57;4.50;;;;;;;;;;5120201;28;20215;-78
2021/04/02 13:39:04;;;;;;;16.70;5.63;;;;;;;;;;5120012;28;20265;-78
2021/04/02 13:41:31;;;;;;;10.17;5.23;;;;;;;;;;5119684;28;20198;-79
2021/04/02 13:43:59;;;;;;;12.10;4.77;;;;;;;;;;5110427;28;20203;-74
2021/04/02 13:46:26;;;;;;;12.20;6.40;;;;;;;;;;5108646;28;20205;-74
2021/04/02 13:48:53;;;;;;;9.00;5.30;;;;;;;;;;5104123;28;20197;-74
2021/04/02 13:51:20;;;;;;;14.83;6.00;;;;;;;;;;5106540;28;20249;-74
2021/04/02 13:53:47;;;;;;;17.00;7.47;;;;;;;;;;5106175;28;20509;-75
2021/04/02 13:56:14;;;;;;;11.23;6.30;;;;;;;;;;5106134;28;20239;-74
2021/04/02 13:58:41;;;;;;;12.90;6.73;;;;;;;;;;5106375;28;20736;-75
2021/04/02 14:01:10;;;;;;;15.93;6.07;;;;;;;;;;5103678;28;20258;-75
2021/04/02 14:03:37;;;;;;;15.43;6.73;;;;;;;;;;5106255;28;20235;-75
2021/04/02 14:06:04;;;;;;;15.13;11.47;;;;;;;;;;5105713;28;20218;-75
2021/04/02 14:08:31;;;;;;;13.53;6.27;;;;;;;;;;5105824;28;20236;-74
2021/04/02 14:10:59;;;;;;;13.13;6.30;;;;;;;;;;5107179;28;20706;-75
2021/04/02 14:13:26;;;;;;;18.10;7.07;;;;;;;;;;5106204;28;20201;-74
2021/04/02 14:15:55;;;;;;;14.53;5.97;;;;;;;;;;5104259;28;20225;-75
2021/04/02 14:18:22;;;;;;;13.93;6.30;;;;;;;;;;5105939;28;20326;-75
2021/04/02 14:20:50;;;;;;;15.07;5.90;;;;;;;;;;5104820;28;20289;-75
2021/04/02 14:23:29;;;;;;;15.80;6.83;;;;;;;;;;5105188;28;20618;-75
2021/04/02 14:25:56;;;;;;;13.30;6.60;;;;;;;;;;5105418;28;20764;-74
2021/04/02 14:28:23;;;;;;;19.13;6.93;;;;;;;;;;5105796;28;20230;-75
2021/04/02 14:30:50;;;;;;;13.27;6.57;;;;;;;;;;5103016;28;20685;-75
2021/04/02 14:33:17;;;;;;;18.10;6.57;;;;;;;;;;5104677;28;20292;-73
2021/04/02 14:35:45;;;;;;;15.20;7.00;;;;;;;;;;5107973;28;20275;-76
2021/04/02 14:38:13;;;;;;;12.57;7.13;;;;;;;;;;5105432;28;20201;-74
2021/04/02 14:40:41;;;;;;;12.40;6.50;;;;;;;;;;5104903;28;20234;-75
2021/04/02 14:43:08;;;;;;;15.77;7.50;;;;;;;;;;5106341;28;20281;-75